sensor_id;sensor_type;location;lat;lon;timestamp;pressure;altitude;pressure_sealevel;temperature;humidity
48630;BME280;34426;52.180;4.462;2023-07-09T00:01:57;101717.97;;;22.02;78.07
48630;BME280;34426;52.180;4.462;2023-07-09T00:04:23;101721.34;;;22.04;78.09
48630;BME280;34426;52.180;4.462;2023-07-09T00:06:48;101724.50;;;22.02;78.23
48630;BME280;34426;52.180;4.462;2023-07-09T00:09:19;101729.47;;;21.97;78.71
48630;BME280;34426;52.180;4.462;2023-07-09T00:11:45;101733.91;;;22.03;78.68
48630;BME280;34426;52.180;4.462;2023-07-09T00:14:13;101735.59;;;22.04;78.51
48630;BME280;34426;52.180;4.462;2023-07-09T00:16:43;101734.94;;;22.07;78.17
48630;BME280;34426;52.180;4.462;2023-07-09T00:19:11;101745.81;;;22.05;78.54
48630;BME280;34426;52.180;4.462;2023-07-09T00:21:37;101742.16;;;22.13;78.30
48630;BME280;34426;52.180;4.462;2023-07-09T00:24:06;101750.19;;;22.11;78.39
48630;BME280;34426;52.180;4.462;2023-07-09T00:26:33;101748.06;;;22.16;78.35
48630;BME280;34426;52.180;4.462;2023-07-09T00:28:59;101749.72;;;22.09;78.27
48630;BME280;34426;52.180;4.462;2023-07-09T00:31:27;101755.25;;;22.14;78.53
48630;BME280;34426;52.180;4.462;2023-07-09T00:33:53;101756.56;;;22.08;78.36
48630;BME280;34426;52.180;4.462;2023-07-09T00:36:26;101749.41;;;21.97;79.03
48630;BME280;34426;52.180;4.462;2023-07-09T00:38:52;101741.09;;;21.86;79.42
48630;BME280;34426;52.180;4.462;2023-07-09T00:41:19;101744.28;;;21.85;79.53
48630;BME280;34426;52.180;4.462;2023-07-09T00:43:47;101740.06;;;21.82;79.46
48630;BME280;34426;52.180;4.462;2023-07-09T00:46:17;101745.88;;;21.77;79.36
48630;BME280;34426;52.180;4.462;2023-07-09T00:49:03;101740.19;;;21.77;79.70
48630;BME280;34426;52.180;4.462;2023-07-09T00:51:31;101738.94;;;21.70;80.01
48630;BME280;34426;52.180;4.462;2023-07-09T00:54:03;101732.03;;;21.62;80.20
48630;BME280;34426;52.180;4.462;2023-07-09T00:56:35;101727.63;;;21.56;80.81
48630;BME280;34426;52.180;4.462;2023-07-09T00:59:05;101725.94;;;21.55;80.68
48630;BME280;34426;52.180;4.462;2023-07-09T01:01:33;101732.69;;;21.59;80.78
48630;BME280;34426;52.180;4.462;2023-07-09T01:04:00;101734.16;;;21.56;80.92
48630;BME280;34426;52.180;4.462;2023-07-09T01:06:30;101740.81;;;21.52;81.17
48630;BME280;34426;52.180;4.462;2023-07-09T01:08:57;101730.59;;;21.51;80.82
48630;BME280;34426;52.180;4.462;2023-07-09T01:11:23;101734.06;;;21.48;81.40
48630;BME280;34426;52.180;4.462;2023-07-09T01:13:49;101738.59;;;21.49;80.78
48630;BME280;34426;52.180;4.462;2023-07-09T01:16:18;101740.94;;;21.47;81.83
48630;BME280;34426;52.180;4.462;2023-07-09T01:18:44;101744.31;;;21.49;81.99
48630;BME280;34426;52.180;4.462;2023-07-09T01:21:11;101745.56;;;21.43;82.38
48630;BME280;34426;52.180;4.462;2023-07-09T01:23:39;101754.22;;;21.38;82.57
48630;BME280;34426;52.180;4.462;2023-07-09T01:26:07;101742.63;;;21.34;82.59
48630;BME280;34426;52.180;4.462;2023-07-09T01:28:32;101744.13;;;21.32;82.74
48630;BME280;34426;52.180;4.462;2023-07-09T01:30:58;101741.59;;;21.30;82.33
48630;BME280;34426;52.180;4.462;2023-07-09T01:33:24;101752.13;;;21.30;82.24
48630;BME280;34426;52.180;4.462;2023-07-09T01:35:50;101750.34;;;21.34;82.07
48630;BME280;34426;52.180;4.462;2023-07-09T01:38:17;101754.22;;;21.38;82.52
48630;BME280;34426;52.180;4.462;2023-07-09T01:40:42;101758.25;;;21.37;82.50
48630;BME280;34426;52.180;4.462;2023-07-09T01:43:08;101766.69;;;21.28;83.17
48630;BME280;34426;52.180;4.462;2023-07-09T01:45:35;101768.16;;;21.25;83.23
48630;BME280;34426;52.180;4.462;2023-07-09T01:48:01;101762.88;;;21.19;83.71
48630;BME280;34426;52.180;4.462;2023-07-09T01:50:27;101768.59;;;21.19;84.13
48630;BME280;34426;52.180;4.462;2023-07-09T01:52:53;101765.00;;;21.27;83.36
48630;BME280;34426;52.180;4.462;2023-07-09T01:55:21;101769.31;;;21.24;83.20
48630;BME280;34426;52.180;4.462;2023-07-09T01:57:47;101764.47;;;21.25;83.83
48630;BME280;34426;52.180;4.462;2023-07-09T02:00:14;101775.94;;;21.34;83.51
48630;BME280;34426;52.180;4.462;2023-07-09T02:02:40;101770.56;;;21.32;83.73
48630;BME280;34426;52.180;4.462;2023-07-09T02:05:07;101772.38;;;21.28;83.55
48630;BME280;34426;52.180;4.462;2023-07-09T02:07:32;101768.88;;;21.31;83.85
48630;BME280;34426;52.180;4.462;2023-07-09T02:09:58;101780.28;;;21.31;83.59
48630;BME280;34426;52.180;4.462;2023-07-09T02:12:25;101776.69;;;21.39;83.70
48630;BME280;34426;52.180;4.462;2023-07-09T02:14:51;101773.00;;;21.39;83.97
48630;BME280;34426;52.180;4.462;2023-07-09T02:17:17;101774.69;;;21.40;83.87
48630;BME280;34426;52.180;4.462;2023-07-09T02:19:43;101767.72;;;21.46;83.87
48630;BME280;34426;52.180;4.462;2023-07-09T02:22:09;101776.78;;;21.48;83.97
48630;BME280;34426;52.180;4.462;2023-07-09T02:24:35;101770.44;;;21.51;83.45
48630;BME280;34426;52.180;4.462;2023-07-09T02:27:04;101766.88;;;21.45;83.42
48630;BME280;34426;52.180;4.462;2023-07-09T02:29:32;101769.41;;;21.47;83.29
48630;BME280;34426;52.180;4.462;2023-07-09T02:32:00;101770.34;;;21.42;83.79
48630;BME280;34426;52.180;4.462;2023-07-09T02:34:25;101771.84;;;21.40;84.37
48630;BME280;34426;52.180;4.462;2023-07-09T02:36:51;101773.63;;;21.36;84.80
48630;BME280;34426;52.180;4.462;2023-07-09T02:39:17;101768.88;;;21.31;85.12
48630;BME280;34426;52.180;4.462;2023-07-09T02:41:43;101767.53;;;21.29;85.51
48630;BME280;34426;52.180;4.462;2023-07-09T02:44:09;101767.00;;;21.27;85.38
48630;BME280;34426;52.180;4.462;2023-07-09T02:46:35;101767.63;;;21.23;85.56
48630;BME280;34426;52.180;4.462;2023-07-09T02:49:03;101765.84;;;21.14;85.93
48630;BME280;34426;52.180;4.462;2023-07-09T02:51:29;101766.88;;;21.04;86.53
48630;BME280;34426;52.180;4.462;2023-07-09T02:53:56;101770.47;;;20.96;86.94
48630;BME280;34426;52.180;4.462;2023-07-09T02:56:22;101770.91;;;21.03;87.11
48630;BME280;34426;52.180;4.462;2023-07-09T02:58:49;101763.09;;;20.95;87.14
48630;BME280;34426;52.180;4.462;2023-07-09T03:01:14;101755.28;;;20.87;87.30
48630;BME280;34426;52.180;4.462;2023-07-09T03:03:41;101756.75;;;20.84;87.44
48630;BME280;34426;52.180;4.462;2023-07-09T03:06:08;101758.56;;;20.80;87.76
48630;BME280;34426;52.180;4.462;2023-07-09T03:08:33;101769.75;;;20.77;87.88
48630;BME280;34426;52.180;4.462;2023-07-09T03:11:00;101774.59;;;20.76;88.78
48630;BME280;34426;52.180;4.462;2023-07-09T03:13:25;101777.00;;;20.69;88.98
48630;BME280;34426;52.180;4.462;2023-07-09T03:15:54;101771.09;;;20.66;89.73
48630;BME280;34426;52.180;4.462;2023-07-09T03:18:20;101777.84;;;20.70;89.50
48630;BME280;34426;52.180;4.462;2023-07-09T03:20:47;101780.56;;;20.61;89.80
48630;BME280;34426;52.180;4.462;2023-07-09T03:23:13;101784.34;;;20.56;90.11
48630;BME280;34426;52.180;4.462;2023-07-09T03:25:40;101789.72;;;20.58;90.28
48630;BME280;34426;52.180;4.462;2023-07-09T03:28:06;101789.72;;;20.58;90.39
48630;BME280;34426;52.180;4.462;2023-07-09T03:30:31;101786.03;;;20.57;90.47
48630;BME280;34426;52.180;4.462;2023-07-09T03:32:57;101786.66;;;20.54;90.80
48630;BME280;34426;52.180;4.462;2023-07-09T03:35:22;101791.19;;;20.55;90.76
48630;BME280;34426;52.180;4.462;2023-07-09T03:37:49;101793.50;;;20.53;91.02
48630;BME280;34426;52.180;4.462;2023-07-09T03:40:20;101796.38;;;20.67;90.79
48630;BME280;34426;52.180;4.462;2023-07-09T03:42:46;101800.06;;;20.68;90.39
48630;BME280;34426;52.180;4.462;2023-07-09T03:45:11;101788.56;;;20.59;90.44
48630;BME280;34426;52.180;4.462;2023-07-09T03:47:37;101787.41;;;20.60;90.68
48630;BME280;34426;52.180;4.462;2023-07-09T03:50:03;101787.63;;;20.64;90.53
48630;BME280;34426;52.180;4.462;2023-07-09T03:52:28;101795.94;;;20.60;90.82
48630;BME280;34426;52.180;4.462;2023-07-09T03:54:55;101802.06;;;20.95;88.66
48630;BME280;34426;52.180;4.462;2023-07-09T03:57:21;101799.88;;;21.05;86.74
48630;BME280;34426;52.180;4.462;2023-07-09T03:59:46;101807.78;;;21.08;85.53
48630;BME280;34426;52.180;4.462;2023-07-09T04:02:12;101810.72;;;21.03;85.24
48630;BME280;34426;52.180;4.462;2023-07-09T04:04:37;101807.03;;;21.03;84.46
48630;BME280;34426;52.180;4.462;2023-07-09T04:07:03;101810.81;;;20.98;84.24
48630;BME280;34426;52.180;4.462;2023-07-09T04:09:29;101797.22;;;20.95;83.42
48630;BME280;34426;52.180;4.462;2023-07-09T04:11:56;101799.13;;;20.86;83.50
48630;BME280;34426;52.180;4.462;2023-07-09T04:14:21;101796.19;;;20.77;83.50
48630;BME280;34426;52.180;4.462;2023-07-09T04:16:47;101789.22;;;20.70;83.67
48630;BME280;34426;52.180;4.462;2023-07-09T04:19:12;101789.63;;;20.63;84.19
48630;BME280;34426;52.180;4.462;2023-07-09T04:21:38;101796.34;;;20.53;84.82
48630;BME280;34426;52.180;4.462;2023-07-09T04:24:04;101795.25;;;20.49;85.03
48630;BME280;34426;52.180;4.462;2023-07-09T04:26:30;101801.16;;;20.53;84.98
48630;BME280;34426;52.180;4.462;2023-07-09T04:28:57;101804.31;;;20.51;85.14
48630;BME280;34426;52.180;4.462;2023-07-09T04:31:22;101810.22;;;20.55;85.40
48630;BME280;34426;52.180;4.462;2023-07-09T04:33:48;101803.09;;;20.57;85.31
48630;BME280;34426;52.180;4.462;2023-07-09T04:36:13;101809.22;;;20.65;84.90
48630;BME280;34426;52.180;4.462;2023-07-09T04:38:39;101800.16;;;20.63;85.11
48630;BME280;34426;52.180;4.462;2023-07-09T04:41:04;101802.03;;;20.53;85.75
48630;BME280;34426;52.180;4.462;2023-07-09T04:43:30;101805.22;;;20.66;85.27
48630;BME280;34426;52.180;4.462;2023-07-09T04:45:56;101811.53;;;20.63;85.57
48630;BME280;34426;52.180;4.462;2023-07-09T04:48:22;101815.13;;;20.68;85.63
48630;BME280;34426;52.180;4.462;2023-07-09T04:50:47;101810.59;;;20.67;85.56
48630;BME280;34426;52.180;4.462;2023-07-09T04:53:13;101808.50;;;20.73;85.79
48630;BME280;34426;52.180;4.462;2023-07-09T04:55:38;101806.72;;;20.77;85.52
48630;BME280;34426;52.180;4.462;2023-07-09T04:58:04;101818.63;;;20.79;85.58
48630;BME280;34426;52.180;4.462;2023-07-09T05:00:30;101829.25;;;20.87;85.30
48630;BME280;34426;52.180;4.462;2023-07-09T05:02:56;101819.88;;;21.00;85.21
48630;BME280;34426;52.180;4.462;2023-07-09T05:05:22;101823.97;;;20.94;85.62
48630;BME280;34426;52.180;4.462;2023-07-09T05:07:48;101824.41;;;21.01;85.67
48630;BME280;34426;52.180;4.462;2023-07-09T05:10:13;101823.69;;;21.09;85.41
48630;BME280;34426;52.180;4.462;2023-07-09T05:12:47;101820.31;;;21.07;85.40
48630;BME280;34426;52.180;4.462;2023-07-09T05:15:13;101822.97;;;21.17;84.78
48630;BME280;34426;52.180;4.462;2023-07-09T05:17:39;101828.59;;;21.22;84.64
48630;BME280;34426;52.180;4.462;2023-07-09T05:20:07;101826.44;;;21.28;84.16
48630;BME280;34426;52.180;4.462;2023-07-09T05:22:33;101824.97;;;21.31;83.89
48630;BME280;34426;52.180;4.462;2023-07-09T05:24:58;101837.50;;;21.43;81.69
48630;BME280;34426;52.180;4.462;2023-07-09T05:27:24;101835.63;;;21.52;80.80
48630;BME280;34426;52.180;4.462;2023-07-09T05:29:50;101830.34;;;21.60;79.42
48630;BME280;34426;52.180;4.462;2023-07-09T05:32:15;101829.50;;;21.59;79.41
48630;BME280;34426;52.180;4.462;2023-07-09T05:34:41;101830.28;;;21.73;77.19
48630;BME280;34426;52.180;4.462;2023-07-09T05:37:08;101838.31;;;21.71;77.72
48630;BME280;34426;52.180;4.462;2023-07-09T05:39:34;101832.81;;;21.75;77.46
48630;BME280;34426;52.180;4.462;2023-07-09T05:41:59;101825.00;;;21.80;77.93
48630;BME280;34426;52.180;4.462;2023-07-09T05:44:25;101832.28;;;21.86;77.37
48630;BME280;34426;52.180;4.462;2023-07-09T05:46:50;101835.09;;;22.00;76.40
48630;BME280;34426;52.180;4.462;2023-07-09T05:49:16;101846.06;;;22.07;75.79
48630;BME280;34426;52.180;4.462;2023-07-09T05:51:41;101842.94;;;22.17;74.61
48630;BME280;34426;52.180;4.462;2023-07-09T05:54:08;101846.84;;;22.21;74.88
48630;BME280;34426;52.180;4.462;2023-07-09T05:56:34;101840.19;;;22.26;75.01
48630;BME280;34426;52.180;4.462;2023-07-09T05:58:59;101845.56;;;22.27;75.37
48630;BME280;34426;52.180;4.462;2023-07-09T06:01:25;101839.84;;;22.27;75.97
48630;BME280;34426;52.180;4.462;2023-07-09T06:03:50;101845.75;;;22.31;75.48
48630;BME280;34426;52.180;4.462;2023-07-09T06:06:16;101854.84;;;22.33;75.47
48630;BME280;34426;52.180;4.462;2023-07-09T06:08:41;101853.47;;;22.30;73.18
48630;BME280;34426;52.180;4.462;2023-07-09T06:11:08;101852.69;;;22.38;69.41
48630;BME280;34426;52.180;4.462;2023-07-09T06:13:35;101852.06;;;22.41;69.56
48630;BME280;34426;52.180;4.462;2023-07-09T06:16:00;101854.78;;;22.46;69.61
48630;BME280;34426;52.180;4.462;2023-07-09T06:18:26;101865.03;;;22.47;70.32
48630;BME280;34426;52.180;4.462;2023-07-09T06:20:55;101873.28;;;22.57;68.32
48630;BME280;34426;52.180;4.462;2023-07-09T06:23:20;101874.72;;;22.69;67.84
48630;BME280;34426;52.180;4.462;2023-07-09T06:25:46;101878.09;;;22.71;67.45
48630;BME280;34426;52.180;4.462;2023-07-09T06:28:13;101880.81;;;22.76;66.52
48630;BME280;34426;52.180;4.462;2023-07-09T06:30:39;101880.72;;;22.81;66.23
48630;BME280;34426;52.180;4.462;2023-07-09T06:33:05;101876.88;;;22.85;65.81
48630;BME280;34426;52.180;4.462;2023-07-09T06:35:31;101885.63;;;22.89;65.92
48630;BME280;34426;52.180;4.462;2023-07-09T06:37:56;101893.03;;;22.90;65.98
48630;BME280;34426;52.180;4.462;2023-07-09T06:40:22;101898.44;;;23.00;62.42
48630;BME280;34426;52.180;4.462;2023-07-09T06:42:47;101906.47;;;22.98;61.93
48630;BME280;34426;52.180;4.462;2023-07-09T06:45:14;101896.09;;;23.02;62.10
48630;BME280;34426;52.180;4.462;2023-07-09T06:47:40;101898.94;;;23.02;60.87
48630;BME280;34426;52.180;4.462;2023-07-09T06:50:06;101896.28;;;23.06;61.16
48630;BME280;34426;52.180;4.462;2023-07-09T06:52:32;101892.97;;;23.12;60.99
48630;BME280;34426;52.180;4.462;2023-07-09T06:54:58;101901.53;;;23.12;60.38
48630;BME280;34426;52.180;4.462;2023-07-09T06:57:23;101901.53;;;23.12;61.06
48630;BME280;34426;52.180;4.462;2023-07-09T06:59:49;101895.81;;;23.12;61.05
48630;BME280;34426;52.180;4.462;2023-07-09T07:02:18;101895.81;;;23.12;61.57
48630;BME280;34426;52.180;4.462;2023-07-09T07:04:43;101903.72;;;23.15;61.99
48630;BME280;34426;52.180;4.462;2023-07-09T07:07:09;101903.88;;;23.10;61.93
48630;BME280;34426;52.180;4.462;2023-07-09T07:09:34;101917.50;;;23.13;63.04
48630;BME280;34426;52.180;4.462;2023-07-09T07:12:03;101911.91;;;23.08;63.17
48630;BME280;34426;52.180;4.462;2023-07-09T07:14:28;101900.38;;;23.13;62.83
48630;BME280;34426;52.180;4.462;2023-07-09T07:16:55;101901.53;;;23.12;62.89
48630;BME280;34426;52.180;4.462;2023-07-09T07:19:22;101900.69;;;23.12;63.83
48630;BME280;34426;52.180;4.462;2023-07-09T07:21:48;101904.75;;;23.19;63.68
48630;BME280;34426;52.180;4.462;2023-07-09T07:24:13;101906.97;;;23.22;63.40
48630;BME280;34426;52.180;4.462;2023-07-09T07:26:42;101903.97;;;23.28;64.25
48630;BME280;34426;52.180;4.462;2023-07-09T07:29:07;101912.41;;;23.33;64.67
48630;BME280;34426;52.180;4.462;2023-07-09T07:31:33;101904.69;;;23.42;65.02
48630;BME280;34426;52.180;4.462;2023-07-09T07:33:58;101900.84;;;23.46;64.26
48630;BME280;34426;52.180;4.462;2023-07-09T07:36:26;101900.91;;;23.55;63.58
48630;BME280;34426;52.180;4.462;2023-07-09T07:38:51;101900.09;;;23.63;64.81
48630;BME280;34426;52.180;4.462;2023-07-09T07:41:19;101889.53;;;23.64;64.27
48630;BME280;34426;52.180;4.462;2023-07-09T07:43:44;101891.22;;;23.73;62.36
48630;BME280;34426;52.180;4.462;2023-07-09T07:46:10;101886.03;;;23.75;62.36
48630;BME280;34426;52.180;4.462;2023-07-09T07:48:36;101890.56;;;23.85;63.17
48630;BME280;34426;52.180;4.462;2023-07-09T07:51:03;101892.75;;;23.79;63.20
48630;BME280;34426;52.180;4.462;2023-07-09T07:53:30;101889.22;;;23.91;63.10
48630;BME280;34426;52.180;4.462;2023-07-09T07:55:56;101893.97;;;24.04;63.56
48630;BME280;34426;52.180;4.462;2023-07-09T07:58:27;101902.22;;;24.14;63.28
48630;BME280;34426;52.180;4.462;2023-07-09T08:00:58;101894.84;;;24.22;61.56
48630;BME280;34426;52.180;4.462;2023-07-09T08:03:33;101900.22;;;24.24;63.00
48630;BME280;34426;52.180;4.462;2023-07-09T08:05:58;101887.75;;;24.11;63.42
48630;BME280;34426;52.180;4.462;2023-07-09T08:08:24;101883.06;;;24.24;64.01
48630;BME280;34426;52.180;4.462;2023-07-09T08:10:51;101882.56;;;24.39;61.87
48630;BME280;34426;52.180;4.462;2023-07-09T08:13:17;101882.25;;;24.49;61.88
48630;BME280;34426;52.180;4.462;2023-07-09T08:15:42;101874.84;;;24.57;62.04
48630;BME280;34426;52.180;4.462;2023-07-09T08:18:08;101874.66;;;24.62;61.66
48630;BME280;34426;52.180;4.462;2023-07-09T08:20:33;101880.19;;;24.75;61.41
48630;BME280;34426;52.180;4.462;2023-07-09T08:22:59;101873.31;;;24.68;61.22
48630;BME280;34426;52.180;4.462;2023-07-09T08:25:25;101867.25;;;24.69;60.86
48630;BME280;34426;52.180;4.462;2023-07-09T08:27:52;101863.50;;;24.86;60.07
48630;BME280;34426;52.180;4.462;2023-07-09T08:30:17;101855.72;;;24.95;59.72
48630;BME280;34426;52.180;4.462;2023-07-09T08:32:43;101847.81;;;25.09;59.06
48630;BME280;34426;52.180;4.462;2023-07-09T08:35:08;101855.50;;;25.17;59.21
48630;BME280;34426;52.180;4.462;2023-07-09T08:37:34;101856.31;;;25.27;59.24
48630;BME280;34426;52.180;4.462;2023-07-09T08:40:00;101853.53;;;25.47;58.59
48630;BME280;34426;52.180;4.462;2023-07-09T08:42:29;101856.97;;;25.62;58.89
48630;BME280;34426;52.180;4.462;2023-07-09T08:45:09;101856.16;;;25.91;56.37
48630;BME280;34426;52.180;4.462;2023-07-09T08:47:40;101872.72;;;26.06;55.48
48630;BME280;34426;52.180;4.462;2023-07-09T08:50:13;101882.41;;;26.22;54.93
48630;BME280;34426;52.180;4.462;2023-07-09T08:52:41;101906.72;;;26.16;54.15
48630;BME280;34426;52.180;4.462;2023-07-09T08:55:11;101904.69;;;25.96;55.12
48630;BME280;34426;52.180;4.462;2023-07-09T08:57:40;101910.03;;;25.76;54.93
48630;BME280;34426;52.180;4.462;2023-07-09T09:00:15;101903.38;;;25.55;57.47
48630;BME280;34426;52.180;4.462;2023-07-09T09:02:48;101905.88;;;25.65;54.76
48630;BME280;34426;52.180;4.462;2023-07-09T09:05:18;101909.38;;;25.62;54.82
48630;BME280;34426;52.180;4.462;2023-07-09T09:07:44;101916.50;;;25.56;56.20
48630;BME280;34426;52.180;4.462;2023-07-09T09:10:14;101915.81;;;25.21;56.46
48630;BME280;34426;52.180;4.462;2023-07-09T09:12:51;101936.19;;;25.19;56.14
48630;BME280;34426;52.180;4.462;2023-07-09T09:15:21;101921.06;;;25.10;57.07
48630;BME280;34426;52.180;4.462;2023-07-09T09:17:52;101918.00;;;25.15;57.40
48630;BME280;34426;52.180;4.462;2023-07-09T09:20:20;101914.16;;;25.11;58.01
48630;BME280;34426;52.180;4.462;2023-07-09T09:22:49;101898.97;;;25.19;57.10
48630;BME280;34426;52.180;4.462;2023-07-09T09:25:25;101898.66;;;25.12;57.92
48630;BME280;34426;52.180;4.462;2023-07-09T09:27:52;101886.47;;;25.24;57.71
48630;BME280;34426;52.180;4.462;2023-07-09T09:30:22;101882.25;;;25.30;57.00
48630;BME280;34426;52.180;4.462;2023-07-09T09:32:51;101879.19;;;25.35;57.87
48630;BME280;34426;52.180;4.462;2023-07-09T09:35:18;101871.44;;;25.36;56.78
48630;BME280;34426;52.180;4.462;2023-07-09T09:37:50;101867.91;;;25.30;57.83
48630;BME280;34426;52.180;4.462;2023-07-09T09:40:32;101876.03;;;25.66;58.23
48630;BME280;34426;52.180;4.462;2023-07-09T09:42:59;101867.13;;;25.89;57.74
48630;BME280;34426;52.180;4.462;2023-07-09T09:45:28;101865.88;;;26.19;56.90
48630;BME280;34426;52.180;4.462;2023-07-09T09:47:59;101871.50;;;26.36;55.99
48630;BME280;34426;52.180;4.462;2023-07-09T09:50:30;101866.88;;;26.44;55.50
48630;BME280;34426;52.180;4.462;2023-07-09T09:52:56;101877.84;;;26.63;54.84
48630;BME280;34426;52.180;4.462;2023-07-09T09:55:24;101884.00;;;26.73;54.71
48630;BME280;34426;52.180;4.462;2023-07-09T09:57:52;101891.69;;;26.81;53.59
48630;BME280;34426;52.180;4.462;2023-07-09T10:00:21;101896.25;;;26.95;53.60
48630;BME280;34426;52.180;4.462;2023-07-09T10:02:49;101904.00;;;27.15;52.27
48630;BME280;34426;52.180;4.462;2023-07-09T10:05:15;101894.91;;;27.13;52.96
48630;BME280;34426;52.180;4.462;2023-07-09T10:07:45;101886.44;;;27.29;50.62
48630;BME280;34426;52.180;4.462;2023-07-09T10:10:18;101883.19;;;27.42;52.10
48630;BME280;34426;52.180;4.462;2023-07-09T10:12:50;101881.09;;;27.64;52.34
48630;BME280;34426;52.180;4.462;2023-07-09T10:15:23;101885.91;;;27.72;51.04
48630;BME280;34426;52.180;4.462;2023-07-09T10:18:02;101890.75;;;28.08;49.84
48630;BME280;34426;52.180;4.462;2023-07-09T10:20:34;101890.50;;;28.25;48.09
48630;BME280;34426;52.180;4.462;2023-07-09T10:23:12;101883.50;;;28.38;48.77
48630;BME280;34426;52.180;4.462;2023-07-09T10:25:52;101872.13;;;28.30;49.73
48630;BME280;34426;52.180;4.462;2023-07-09T10:28:38;101875.63;;;28.23;50.69
48630;BME280;34426;52.180;4.462;2023-07-09T10:31:16;101873.94;;;28.34;49.36
48630;BME280;34426;52.180;4.462;2023-07-09T10:34:00;101874.66;;;28.19;50.92
48630;BME280;34426;52.180;4.462;2023-07-09T10:36:40;101871.06;;;28.62;50.95
48630;BME280;34426;52.180;4.462;2023-07-09T10:39:16;101877.66;;;28.63;50.84
48630;BME280;34426;52.180;4.462;2023-07-09T10:41:43;101886.69;;;28.89;48.70
48630;BME280;34426;52.180;4.462;2023-07-09T10:44:16;101907.06;;;28.96;48.72
48630;BME280;34426;52.180;4.462;2023-07-09T10:46:51;101917.66;;;28.80;49.27
48630;BME280;34426;52.180;4.462;2023-07-09T10:49:21;101924.66;;;28.67;46.69
48630;BME280;34426;52.180;4.462;2023-07-09T10:51:50;101916.25;;;28.46;48.26
48630;BME280;34426;52.180;4.462;2023-07-09T10:54:28;101921.41;;;28.40;47.58
48630;BME280;34426;52.180;4.462;2023-07-09T10:57:00;101923.00;;;28.66;47.39
48630;BME280;34426;52.180;4.462;2023-07-09T10:59:31;101929.31;;;28.84;46.63
48630;BME280;34426;52.180;4.462;2023-07-09T11:02:01;101927.13;;;28.93;46.83
48630;BME280;34426;52.180;4.462;2023-07-09T11:04:41;101924.09;;;29.17;45.71
48630;BME280;34426;52.180;4.462;2023-07-09T11:07:12;101922.47;;;29.04;47.24
48630;BME280;34426;52.180;4.462;2023-07-09T11:09:43;101920.19;;;28.54;46.74
48630;BME280;34426;52.180;4.462;2023-07-09T11:12:13;101923.00;;;28.01;47.87
48630;BME280;34426;52.180;4.462;2023-07-09T11:14:45;101911.13;;;28.15;48.74
48630;BME280;34426;52.180;4.462;2023-07-09T11:17:15;101920.50;;;27.88;48.04
48630;BME280;34426;52.180;4.462;2023-07-09T11:19:45;101904.56;;;28.02;48.05
48630;BME280;34426;52.180;4.462;2023-07-09T11:22:15;101910.66;;;28.01;47.87
48630;BME280;34426;52.180;4.462;2023-07-09T11:24:46;101912.94;;;28.07;47.97
48630;BME280;34426;52.180;4.462;2023-07-09T11:27:20;101921.69;;;28.23;48.65
48630;BME280;34426;52.180;4.462;2023-07-09T11:29:47;101918.56;;;28.28;48.75
48630;BME280;34426;52.180;4.462;2023-07-09T11:32:28;101928.72;;;27.53;50.16
48630;BME280;34426;52.180;4.462;2023-07-09T11:35:06;101939.47;;;27.31;50.31
48630;BME280;34426;52.180;4.462;2023-07-09T11:37:44;101950.25;;;27.22;51.28
48630;BME280;34426;52.180;4.462;2023-07-09T11:40:12;101967.00;;;27.32;51.63
48630;BME280;34426;52.180;4.462;2023-07-09T11:42:49;101979.56;;;27.61;51.03
48630;BME280;34426;52.180;4.462;2023-07-09T11:45:19;101985.47;;;27.89;50.45
48630;BME280;34426;52.180;4.462;2023-07-09T11:47:50;101988.78;;;27.78;50.71
48630;BME280;34426;52.180;4.462;2023-07-09T11:50:27;101992.06;;;27.44;51.32
48630;BME280;34426;52.180;4.462;2023-07-09T11:52:58;102016.13;;;27.39;51.94
48630;BME280;34426;52.180;4.462;2023-07-09T11:55:33;102023.63;;;27.20;52.03
48630;BME280;34426;52.180;4.462;2023-07-09T11:58:12;102020.75;;;26.78;53.52
48630;BME280;34426;52.180;4.462;2023-07-09T12:00:40;102026.88;;;26.89;54.13
48630;BME280;34426;52.180;4.462;2023-07-09T12:03:17;102015.13;;;26.40;54.82
48630;BME280;34426;52.180;4.462;2023-07-09T12:05:52;102028.69;;;26.51;55.20
48630;BME280;34426;52.180;4.462;2023-07-09T12:08:19;102048.34;;;26.03;55.99
48630;BME280;34426;52.180;4.462;2023-07-09T12:10:51;102046.13;;;25.62;58.36
48630;BME280;34426;52.180;4.462;2023-07-09T12:13:18;102043.31;;;24.84;61.91
48630;BME280;34426;52.180;4.462;2023-07-09T12:15:46;102052.88;;;24.45;64.13
48630;BME280;34426;52.180;4.462;2023-07-09T12:18:16;102047.78;;;24.33;64.51
48630;BME280;34426;52.180;4.462;2023-07-09T12:20:47;102046.97;;;24.41;64.85
48630;BME280;34426;52.180;4.462;2023-07-09T12:23:21;102055.78;;;23.74;65.60
48630;BME280;34426;52.180;4.462;2023-07-09T12:25:48;102064.38;;;23.30;68.06
48630;BME280;34426;52.180;4.462;2023-07-09T12:28:14;102061.84;;;23.06;69.41
48630;BME280;34426;52.180;4.462;2023-07-09T12:30:44;102059.44;;;22.49;71.38
48630;BME280;34426;52.180;4.462;2023-07-09T12:33:19;102065.16;;;22.22;72.49
48630;BME280;34426;52.180;4.462;2023-07-09T12:35:49;102059.66;;;22.12;73.37
48630;BME280;34426;52.180;4.462;2023-07-09T12:38:21;102048.94;;;22.09;74.17
48630;BME280;34426;52.180;4.462;2023-07-09T12:40:51;102044.66;;;21.92;74.44
48630;BME280;34426;52.180;4.462;2023-07-09T12:43:22;102032.13;;;21.94;74.96
48630;BME280;34426;52.180;4.462;2023-07-09T12:45:50;102030.53;;;21.87;75.16
48630;BME280;34426;52.180;4.462;2023-07-09T12:48:16;102020.19;;;21.64;75.72
48630;BME280;34426;52.180;4.462;2023-07-09T12:50:51;102002.25;;;21.64;76.01
48630;BME280;34426;52.180;4.462;2023-07-09T12:53:20;102015.34;;;21.92;75.92
48630;BME280;34426;52.180;4.462;2023-07-09T12:55:49;102004.56;;;22.16;75.03